X  Zatvori METAR podaci zračne luke        EBOS Ostend-Bruges International Airport
Temperatura
63°F Temperatura
59°F Točka rosišta
88% Vlaga



Vjetar
12 MPS
19 KM/S
5 M/S
10 Čvorovi



230°
JZ
Trenutna situacija

Mostly Cloudy Pretežno oblačno
Tlak zraka 1014 (hPa) - 29.94 (inHg)
Vidljivost 6 (milje) - 10 (km)
Zračna luka
Kôd zračne luke EBOS

Lokacija: Ostend-Bruges International Airport
Udaljenost: 60 (mi)

Metar:
METAR EBOS 161920Z 23010KT 9999 FEW014 BKN017 17/15 Q1014 NOSIG

Vrijeme: 16-07-2024 21:20 CEST